Aérodrome :
LOGIN :

S'inscrire | Disclaimer

   EN    FR    IT 

 










Légende :    VFR   VFR Marginal   IFR   IFR Intensif   IFR Très Intensif
Visi : 
Plafond : 
>= 8 km
>= 3000ft
5 à 8 km
1000 à 3000 ft
1500m à 5 km
500 à 1000 ft
800 à 1500m
200 à 500 ft
< 800m
< 200 ft
Symboles :   Orages  Brouillard  Fortes neiges  Fortes précipitations  Vent > 20 kt
SIGMETs :   Divers  Orages  Givrage  Turbulence  Onde Orograph.  Cendres Volcan.






- Altitude de l'aérodrome : 120 ft
- Code IATA : MME


EGNV - Durham Tees valley

DERNIER METAR :
  • 131750Z 09004KT 9999 FEW030 02/01 Q0995

METARs EXPIRÉS :
  • 131720Z 10005KT 9999 FEW030 01/M00 Q0995
  • 131650Z 10005KT 9999 FEW030 SCT048 02/01 Q0995
  • 131620Z 10004KT 9999 FEW046 02/01 Q0995
  • 131550Z 10005KT 9999 FEW030 03/01 Q0995
  • 131520Z 12004KT 9999 FEW030 05/02 Q0995

TAF TAF EGNV
Valide du 13 à 18h jusqu'au 13 à 22h UTC


131703Z 1318/1322 VRB05KT 9999 SCT030
ATIS : +44 9012 018 111



MET'MAP, la Météo Aéronautique d'un coup d'oeil ! - Copyright ORBIFLY Décembre 2007 - Disclaimer

ORBIFLY MET'MAP TEAM :

Programmation & Développement : Alexandra Zaïnal
Conception & Développement : Baudouin d'Aumeries
Co-Programmation & Développement : Marc-Olivier Méhu
Soutien technique & logistique : Manuel Goepfert

Contact : metmap@orbifly.com




SOURCES & CREDITS :

   NOAA